sensor_id;sensor_type;location;lat;lon;timestamp;P1;durP1;ratioP1;P2;durP2;ratioP2
8825;SDS011;4449;50.872;4.714;2023-05-15T00:01:59;31.87;;;18.60;;
8825;SDS011;4449;50.872;4.714;2023-05-15T00:04:26;28.87;;;19.40;;
8825;SDS011;4449;50.872;4.714;2023-05-15T00:06:54;27.97;;;19.23;;
8825;SDS011;4449;50.872;4.714;2023-05-15T00:09:23;33.27;;;20.83;;
8825;SDS011;4449;50.872;4.714;2023-05-15T00:11:51;27.60;;;20.47;;
8825;SDS011;4449;50.872;4.714;2023-05-15T00:14:19;30.27;;;20.37;;
8825;SDS011;4449;50.872;4.714;2023-05-15T00:16:47;35.60;;;19.20;;
8825;SDS011;4449;50.872;4.714;2023-05-15T00:19:15;31.90;;;22.17;;
8825;SDS011;4449;50.872;4.714;2023-05-15T00:21:42;32.67;;;21.63;;
8825;SDS011;4449;50.872;4.714;2023-05-15T00:24:10;30.43;;;21.47;;
8825;SDS011;4449;50.872;4.714;2023-05-15T00:26:39;29.37;;;21.60;;
8825;SDS011;4449;50.872;4.714;2023-05-15T00:29:07;36.73;;;23.60;;
8825;SDS011;4449;50.872;4.714;2023-05-15T00:31:35;36.13;;;23.50;;
8825;SDS011;4449;50.872;4.714;2023-05-15T00:34:03;32.97;;;23.87;;
8825;SDS011;4449;50.872;4.714;2023-05-15T00:36:30;36.77;;;23.70;;
8825;SDS011;4449;50.872;4.714;2023-05-15T00:38:58;38.10;;;24.77;;
8825;SDS011;4449;50.872;4.714;2023-05-15T00:41:26;34.43;;;25.17;;
8825;SDS011;4449;50.872;4.714;2023-05-15T00:43:57;39.07;;;25.37;;
8825;SDS011;4449;50.872;4.714;2023-05-15T00:46:26;39.70;;;25.57;;
8825;SDS011;4449;50.872;4.714;2023-05-15T00:48:55;43.53;;;26.53;;
8825;SDS011;4449;50.872;4.714;2023-05-15T00:51:26;45.33;;;25.43;;
8825;SDS011;4449;50.872;4.714;2023-05-15T00:53:53;37.10;;;25.03;;
8825;SDS011;4449;50.872;4.714;2023-05-15T00:56:21;40.27;;;26.17;;
8825;SDS011;4449;50.872;4.714;2023-05-15T00:58:49;42.80;;;26.13;;
8825;SDS011;4449;50.872;4.714;2023-05-15T01:01:19;41.27;;;26.60;;
8825;SDS011;4449;50.872;4.714;2023-05-15T01:03:49;41.93;;;26.80;;
8825;SDS011;4449;50.872;4.714;2023-05-15T01:06:17;46.10;;;27.73;;
8825;SDS011;4449;50.872;4.714;2023-05-15T01:08:45;41.23;;;26.00;;
8825;SDS011;4449;50.872;4.714;2023-05-15T01:11:13;48.50;;;26.53;;
8825;SDS011;4449;50.872;4.714;2023-05-15T01:13:41;44.30;;;27.60;;
8825;SDS011;4449;50.872;4.714;2023-05-15T01:16:09;48.20;;;26.80;;
8825;SDS011;4449;50.872;4.714;2023-05-15T01:18:39;42.93;;;26.83;;
8825;SDS011;4449;50.872;4.714;2023-05-15T01:21:22;41.90;;;27.10;;
8825;SDS011;4449;50.872;4.714;2023-05-15T01:23:56;47.17;;;27.63;;
8825;SDS011;4449;50.872;4.714;2023-05-15T01:29:18;48.93;;;28.63;;
8825;SDS011;4449;50.872;4.714;2023-05-15T01:31:49;47.30;;;29.73;;
8825;SDS011;4449;50.872;4.714;2023-05-15T01:34:17;53.70;;;29.73;;
8825;SDS011;4449;50.872;4.714;2023-05-15T01:36:47;53.80;;;32.17;;
8825;SDS011;4449;50.872;4.714;2023-05-15T01:39:16;51.67;;;31.77;;
8825;SDS011;4449;50.872;4.714;2023-05-15T01:41:49;59.67;;;32.50;;
8825;SDS011;4449;50.872;4.714;2023-05-15T01:44:21;56.33;;;32.80;;
8825;SDS011;4449;50.872;4.714;2023-05-15T01:46:50;63.33;;;32.50;;
8825;SDS011;4449;50.872;4.714;2023-05-15T01:49:18;53.17;;;31.50;;
8825;SDS011;4449;50.872;4.714;2023-05-15T01:51:51;50.70;;;31.87;;
8825;SDS011;4449;50.872;4.714;2023-05-15T01:54:21;55.43;;;32.23;;
8825;SDS011;4449;50.872;4.714;2023-05-15T01:56:49;54.43;;;31.57;;
8825;SDS011;4449;50.872;4.714;2023-05-15T01:59:19;53.97;;;30.97;;
8825;SDS011;4449;50.872;4.714;2023-05-15T02:01:47;52.40;;;28.67;;
8825;SDS011;4449;50.872;4.714;2023-05-15T02:04:16;52.43;;;30.93;;
8825;SDS011;4449;50.872;4.714;2023-05-15T02:06:45;49.97;;;30.73;;
8825;SDS011;4449;50.872;4.714;2023-05-15T02:09:14;55.63;;;29.60;;
8825;SDS011;4449;50.872;4.714;2023-05-15T02:11:42;55.60;;;30.37;;
8825;SDS011;4449;50.872;4.714;2023-05-15T02:14:10;48.43;;;29.37;;
8825;SDS011;4449;50.872;4.714;2023-05-15T02:16:40;53.97;;;29.70;;
8825;SDS011;4449;50.872;4.714;2023-05-15T02:19:08;59.93;;;32.67;;
8825;SDS011;4449;50.872;4.714;2023-05-15T02:21:36;56.40;;;32.33;;
8825;SDS011;4449;50.872;4.714;2023-05-15T02:24:03;51.53;;;31.77;;
8825;SDS011;4449;50.872;4.714;2023-05-15T02:26:34;53.07;;;32.10;;
8825;SDS011;4449;50.872;4.714;2023-05-15T02:29:05;60.50;;;33.13;;
8825;SDS011;4449;50.872;4.714;2023-05-15T02:31:39;62.00;;;32.53;;
8825;SDS011;4449;50.872;4.714;2023-05-15T02:34:14;56.20;;;29.90;;
8825;SDS011;4449;50.872;4.714;2023-05-15T02:36:43;59.00;;;33.33;;
8825;SDS011;4449;50.872;4.714;2023-05-15T02:39:14;57.00;;;33.40;;
8825;SDS011;4449;50.872;4.714;2023-05-15T02:41:42;57.00;;;30.97;;
8825;SDS011;4449;50.872;4.714;2023-05-15T02:44:11;56.30;;;32.30;;
8825;SDS011;4449;50.872;4.714;2023-05-15T02:46:40;58.13;;;32.67;;
8825;SDS011;4449;50.872;4.714;2023-05-15T02:49:08;52.70;;;30.23;;
8825;SDS011;4449;50.872;4.714;2023-05-15T02:51:37;48.83;;;28.70;;
8825;SDS011;4449;50.872;4.714;2023-05-15T02:54:05;53.60;;;31.10;;
8825;SDS011;4449;50.872;4.714;2023-05-15T02:56:33;55.53;;;30.53;;
8825;SDS011;4449;50.872;4.714;2023-05-15T02:59:01;62.80;;;31.17;;
8825;SDS011;4449;50.872;4.714;2023-05-15T03:01:29;52.77;;;29.67;;
8825;SDS011;4449;50.872;4.714;2023-05-15T03:03:57;54.83;;;28.43;;
8825;SDS011;4449;50.872;4.714;2023-05-15T03:06:24;47.10;;;28.00;;
8825;SDS011;4449;50.872;4.714;2023-05-15T03:08:54;51.87;;;30.30;;
8825;SDS011;4449;50.872;4.714;2023-05-15T03:11:21;49.73;;;28.87;;
8825;SDS011;4449;50.872;4.714;2023-05-15T03:13:49;49.80;;;28.47;;
8825;SDS011;4449;50.872;4.714;2023-05-15T03:16:17;46.17;;;26.80;;
8825;SDS011;4449;50.872;4.714;2023-05-15T03:18:44;46.03;;;28.63;;
8825;SDS011;4449;50.872;4.714;2023-05-15T03:21:12;48.47;;;29.57;;
8825;SDS011;4449;50.872;4.714;2023-05-15T03:23:40;49.77;;;29.77;;
8825;SDS011;4449;50.872;4.714;2023-05-15T03:26:09;49.83;;;28.53;;
8825;SDS011;4449;50.872;4.714;2023-05-15T03:28:37;50.37;;;29.27;;
8825;SDS011;4449;50.872;4.714;2023-05-15T03:31:05;54.10;;;29.47;;
8825;SDS011;4449;50.872;4.714;2023-05-15T03:33:33;64.07;;;28.87;;
8825;SDS011;4449;50.872;4.714;2023-05-15T03:36:00;47.43;;;28.57;;
8825;SDS011;4449;50.872;4.714;2023-05-15T03:38:28;47.10;;;27.60;;
8825;SDS011;4449;50.872;4.714;2023-05-15T03:40:56;48.17;;;30.07;;
8825;SDS011;4449;50.872;4.714;2023-05-15T03:43:25;50.43;;;28.80;;
8825;SDS011;4449;50.872;4.714;2023-05-15T03:45:53;57.93;;;31.30;;
8825;SDS011;4449;50.872;4.714;2023-05-15T03:48:21;45.13;;;28.03;;
8825;SDS011;4449;50.872;4.714;2023-05-15T03:50:48;48.43;;;28.83;;
8825;SDS011;4449;50.872;4.714;2023-05-15T03:53:17;48.63;;;29.30;;
8825;SDS011;4449;50.872;4.714;2023-05-15T03:55:45;49.97;;;28.63;;
8825;SDS011;4449;50.872;4.714;2023-05-15T03:58:13;48.57;;;29.17;;
8825;SDS011;4449;50.872;4.714;2023-05-15T04:00:42;49.83;;;29.47;;
8825;SDS011;4449;50.872;4.714;2023-05-15T04:03:10;56.40;;;30.53;;
8825;SDS011;4449;50.872;4.714;2023-05-15T04:05:37;55.70;;;30.17;;
8825;SDS011;4449;50.872;4.714;2023-05-15T04:08:05;53.33;;;30.47;;
8825;SDS011;4449;50.872;4.714;2023-05-15T04:10:34;52.60;;;30.10;;
8825;SDS011;4449;50.872;4.714;2023-05-15T04:13:02;54.83;;;28.37;;
8825;SDS011;4449;50.872;4.714;2023-05-15T04:15:30;54.33;;;29.97;;
8825;SDS011;4449;50.872;4.714;2023-05-15T04:17:59;68.33;;;34.37;;
8825;SDS011;4449;50.872;4.714;2023-05-15T04:20:27;64.67;;;33.13;;
8825;SDS011;4449;50.872;4.714;2023-05-15T04:22:54;63.00;;;32.03;;
8825;SDS011;4449;50.872;4.714;2023-05-15T04:25:22;71.47;;;36.10;;
8825;SDS011;4449;50.872;4.714;2023-05-15T04:27:50;69.17;;;34.50;;
8825;SDS011;4449;50.872;4.714;2023-05-15T04:30:18;74.63;;;37.53;;
8825;SDS011;4449;50.872;4.714;2023-05-15T04:32:45;72.70;;;38.10;;
8825;SDS011;4449;50.872;4.714;2023-05-15T04:35:15;72.60;;;36.67;;
8825;SDS011;4449;50.872;4.714;2023-05-15T04:37:43;64.37;;;35.10;;
8825;SDS011;4449;50.872;4.714;2023-05-15T04:40:11;68.50;;;35.40;;
8825;SDS011;4449;50.872;4.714;2023-05-15T04:42:40;74.40;;;36.37;;
8825;SDS011;4449;50.872;4.714;2023-05-15T04:45:08;72.17;;;37.87;;
8825;SDS011;4449;50.872;4.714;2023-05-15T04:47:36;77.10;;;38.00;;
8825;SDS011;4449;50.872;4.714;2023-05-15T04:50:04;76.37;;;37.47;;
8825;SDS011;4449;50.872;4.714;2023-05-15T04:52:33;71.67;;;39.37;;
8825;SDS011;4449;50.872;4.714;2023-05-15T04:55:01;78.57;;;39.33;;
8825;SDS011;4449;50.872;4.714;2023-05-15T04:57:29;77.40;;;39.20;;
8825;SDS011;4449;50.872;4.714;2023-05-15T04:59:56;82.67;;;39.30;;
8825;SDS011;4449;50.872;4.714;2023-05-15T05:02:24;75.10;;;38.13;;
8825;SDS011;4449;50.872;4.714;2023-05-15T05:04:52;68.73;;;37.87;;
8825;SDS011;4449;50.872;4.714;2023-05-15T05:07:20;81.90;;;39.93;;
8825;SDS011;4449;50.872;4.714;2023-05-15T05:09:49;69.60;;;36.17;;
8825;SDS011;4449;50.872;4.714;2023-05-15T05:12:16;67.10;;;38.50;;
8825;SDS011;4449;50.872;4.714;2023-05-15T05:14:44;64.70;;;35.97;;
8825;SDS011;4449;50.872;4.714;2023-05-15T05:17:12;66.13;;;35.30;;
8825;SDS011;4449;50.872;4.714;2023-05-15T05:19:40;64.43;;;35.40;;
8825;SDS011;4449;50.872;4.714;2023-05-15T05:22:07;65.77;;;34.83;;
8825;SDS011;4449;50.872;4.714;2023-05-15T05:24:35;67.17;;;37.30;;
8825;SDS011;4449;50.872;4.714;2023-05-15T05:27:05;70.93;;;35.93;;
8825;SDS011;4449;50.872;4.714;2023-05-15T05:29:33;75.97;;;36.63;;
8825;SDS011;4449;50.872;4.714;2023-05-15T05:32:00;75.00;;;35.97;;
8825;SDS011;4449;50.872;4.714;2023-05-15T05:34:28;70.43;;;35.30;;
8825;SDS011;4449;50.872;4.714;2023-05-15T05:36:56;68.50;;;35.60;;
8825;SDS011;4449;50.872;4.714;2023-05-15T05:39:23;70.83;;;37.17;;
8825;SDS011;4449;50.872;4.714;2023-05-15T05:41:51;69.73;;;38.33;;
8825;SDS011;4449;50.872;4.714;2023-05-15T05:44:20;71.93;;;37.83;;
8825;SDS011;4449;50.872;4.714;2023-05-15T05:46:48;91.40;;;40.50;;
8825;SDS011;4449;50.872;4.714;2023-05-15T05:49:16;82.40;;;40.03;;
8825;SDS011;4449;50.872;4.714;2023-05-15T05:51:44;83.57;;;41.97;;
8825;SDS011;4449;50.872;4.714;2023-05-15T05:54:11;81.93;;;37.50;;
8825;SDS011;4449;50.872;4.714;2023-05-15T05:56:40;75.40;;;37.63;;
8825;SDS011;4449;50.872;4.714;2023-05-15T05:59:09;76.73;;;37.40;;
8825;SDS011;4449;50.872;4.714;2023-05-15T06:01:38;82.00;;;39.93;;
8825;SDS011;4449;50.872;4.714;2023-05-15T06:04:06;85.07;;;40.87;;
8825;SDS011;4449;50.872;4.714;2023-05-15T06:06:34;77.93;;;39.23;;
8825;SDS011;4449;50.872;4.714;2023-05-15T06:09:02;81.03;;;42.43;;
8825;SDS011;4449;50.872;4.714;2023-05-15T06:11:30;93.40;;;42.63;;
8825;SDS011;4449;50.872;4.714;2023-05-15T06:13:57;101.43;;;43.47;;
8825;SDS011;4449;50.872;4.714;2023-05-15T06:16:25;82.43;;;37.90;;
8825;SDS011;4449;50.872;4.714;2023-05-15T06:18:54;82.53;;;40.50;;
8825;SDS011;4449;50.872;4.714;2023-05-15T06:21:22;73.57;;;37.67;;
8825;SDS011;4449;50.872;4.714;2023-05-15T06:23:50;72.37;;;37.70;;
8825;SDS011;4449;50.872;4.714;2023-05-15T06:26:18;81.27;;;36.53;;
8825;SDS011;4449;50.872;4.714;2023-05-15T06:28:46;69.93;;;36.37;;
8825;SDS011;4449;50.872;4.714;2023-05-15T06:31:14;75.97;;;36.47;;
8825;SDS011;4449;50.872;4.714;2023-05-15T06:33:42;85.90;;;37.83;;
8825;SDS011;4449;50.872;4.714;2023-05-15T06:36:11;80.30;;;38.03;;
8825;SDS011;4449;50.872;4.714;2023-05-15T06:38:38;80.50;;;38.93;;
8825;SDS011;4449;50.872;4.714;2023-05-15T06:41:06;83.53;;;37.97;;
8825;SDS011;4449;50.872;4.714;2023-05-15T06:43:34;76.63;;;36.07;;
8825;SDS011;4449;50.872;4.714;2023-05-15T06:46:02;64.80;;;32.77;;
8825;SDS011;4449;50.872;4.714;2023-05-15T06:48:30;76.57;;;36.33;;
8825;SDS011;4449;50.872;4.714;2023-05-15T06:50:57;74.73;;;37.03;;
8825;SDS011;4449;50.872;4.714;2023-05-15T06:53:28;76.03;;;36.23;;
8825;SDS011;4449;50.872;4.714;2023-05-15T06:55:56;76.33;;;35.80;;
8825;SDS011;4449;50.872;4.714;2023-05-15T06:58:24;74.37;;;35.93;;
8825;SDS011;4449;50.872;4.714;2023-05-15T07:00:51;73.90;;;36.53;;
8825;SDS011;4449;50.872;4.714;2023-05-15T07:03:19;78.53;;;36.83;;
8825;SDS011;4449;50.872;4.714;2023-05-15T07:05:46;74.30;;;37.53;;
8825;SDS011;4449;50.872;4.714;2023-05-15T07:08:15;78.40;;;35.83;;
8825;SDS011;4449;50.872;4.714;2023-05-15T07:10:45;67.60;;;33.93;;
8825;SDS011;4449;50.872;4.714;2023-05-15T07:13:12;65.37;;;34.77;;
8825;SDS011;4449;50.872;4.714;2023-05-15T07:15:40;66.00;;;32.83;;
8825;SDS011;4449;50.872;4.714;2023-05-15T07:18:08;64.80;;;33.03;;
8825;SDS011;4449;50.872;4.714;2023-05-15T07:20:36;66.07;;;33.47;;
8825;SDS011;4449;50.872;4.714;2023-05-15T07:23:03;66.73;;;34.00;;
8825;SDS011;4449;50.872;4.714;2023-05-15T07:25:31;61.33;;;32.50;;
8825;SDS011;4449;50.872;4.714;2023-05-15T07:28:01;82.13;;;34.53;;
8825;SDS011;4449;50.872;4.714;2023-05-15T07:30:28;78.00;;;37.20;;
8825;SDS011;4449;50.872;4.714;2023-05-15T07:32:56;73.50;;;34.80;;
8825;SDS011;4449;50.872;4.714;2023-05-15T07:35:24;70.10;;;34.47;;
8825;SDS011;4449;50.872;4.714;2023-05-15T07:37:52;62.90;;;31.27;;
8825;SDS011;4449;50.872;4.714;2023-05-15T07:40:20;68.80;;;34.57;;
8825;SDS011;4449;50.872;4.714;2023-05-15T07:42:47;62.43;;;31.93;;
8825;SDS011;4449;50.872;4.714;2023-05-15T07:56:47;61.73;;;29.20;;
8825;SDS011;4449;50.872;4.714;2023-05-15T07:59:15;58.10;;;30.00;;
8825;SDS011;4449;50.872;4.714;2023-05-15T08:01:43;53.50;;;27.47;;
8825;SDS011;4449;50.872;4.714;2023-05-15T08:04:11;59.20;;;29.27;;
8825;SDS011;4449;50.872;4.714;2023-05-15T08:06:38;49.37;;;26.33;;
8825;SDS011;4449;50.872;4.714;2023-05-15T08:09:07;60.80;;;27.37;;
8825;SDS011;4449;50.872;4.714;2023-05-15T08:11:34;47.57;;;25.47;;
8825;SDS011;4449;50.872;4.714;2023-05-15T08:14:04;45.80;;;25.10;;
8825;SDS011;4449;50.872;4.714;2023-05-15T08:16:31;46.47;;;25.73;;
8825;SDS011;4449;50.872;4.714;2023-05-15T08:18:59;48.00;;;25.17;;
8825;SDS011;4449;50.872;4.714;2023-05-15T08:21:29;54.87;;;27.60;;
8825;SDS011;4449;50.872;4.714;2023-05-15T08:23:57;58.77;;;29.40;;
8825;SDS011;4449;50.872;4.714;2023-05-15T08:26:25;53.07;;;28.70;;
8825;SDS011;4449;50.872;4.714;2023-05-15T08:28:53;56.37;;;27.57;;
8825;SDS011;4449;50.872;4.714;2023-05-15T08:31:22;54.93;;;27.97;;
8825;SDS011;4449;50.872;4.714;2023-05-15T08:33:50;53.67;;;27.20;;
8825;SDS011;4449;50.872;4.714;2023-05-15T08:36:17;46.53;;;25.60;;
8825;SDS011;4449;50.872;4.714;2023-05-15T08:38:46;49.17;;;27.30;;
8825;SDS011;4449;50.872;4.714;2023-05-15T08:41:15;51.03;;;27.83;;
8825;SDS011;4449;50.872;4.714;2023-05-15T08:43:47;52.80;;;27.73;;
8825;SDS011;4449;50.872;4.714;2023-05-15T08:46:16;49.47;;;25.70;;
8825;SDS011;4449;50.872;4.714;2023-05-15T08:48:45;55.33;;;27.73;;
8825;SDS011;4449;50.872;4.714;2023-05-15T08:51:13;54.70;;;29.60;;
8825;SDS011;4449;50.872;4.714;2023-05-15T08:53:41;48.73;;;27.20;;
8825;SDS011;4449;50.872;4.714;2023-05-15T08:56:09;48.70;;;26.87;;
8825;SDS011;4449;50.872;4.714;2023-05-15T08:58:37;52.17;;;26.87;;
8825;SDS011;4449;50.872;4.714;2023-05-15T09:01:05;46.20;;;26.03;;
8825;SDS011;4449;50.872;4.714;2023-05-15T09:03:33;46.30;;;28.60;;
8825;SDS011;4449;50.872;4.714;2023-05-15T09:06:02;50.13;;;28.15;;
8825;SDS011;4449;50.872;4.714;2023-05-15T09:08:30;44.90;;;29.73;;
8825;SDS011;4449;50.872;4.714;2023-05-15T09:10:59;41.80;;;27.30;;
8825;SDS011;4449;50.872;4.714;2023-05-15T09:13:28;40.75;;;27.23;;
8825;SDS011;4449;50.872;4.714;2023-05-15T09:15:56;43.78;;;28.25;;
8825;SDS011;4449;50.872;4.714;2023-05-15T09:18:24;45.15;;;27.85;;
8825;SDS011;4449;50.872;4.714;2023-05-15T09:20:53;41.20;;;27.33;;
8825;SDS011;4449;50.872;4.714;2023-05-15T09:23:22;40.95;;;27.77;;
8825;SDS011;4449;50.872;4.714;2023-05-15T09:25:50;40.13;;;26.95;;
8825;SDS011;4449;50.872;4.714;2023-05-15T09:28:24;37.17;;;25.00;;
8825;SDS011;4449;50.872;4.714;2023-05-15T09:30:57;33.90;;;23.52;;
8825;SDS011;4449;50.872;4.714;2023-05-15T09:33:32;37.10;;;26.20;;
8825;SDS011;4449;50.872;4.714;2023-05-15T09:36:00;36.28;;;25.38;;
8825;SDS011;4449;50.872;4.714;2023-05-15T09:38:30;34.60;;;25.30;;
8825;SDS011;4449;50.872;4.714;2023-05-15T09:41:02;37.05;;;26.60;;
8825;SDS011;4449;50.872;4.714;2023-05-15T10:42:10;49.95;;;28.58;;
8825;SDS011;4449;50.872;4.714;2023-05-15T10:44:45;44.00;;;27.75;;
8825;SDS011;4449;50.872;4.714;2023-05-15T10:47:13;39.80;;;26.20;;
8825;SDS011;4449;50.872;4.714;2023-05-15T10:49:41;35.58;;;24.17;;
8825;SDS011;4449;50.872;4.714;2023-05-15T10:52:09;34.22;;;24.67;;
8825;SDS011;4449;50.872;4.714;2023-05-15T10:54:36;39.38;;;25.15;;
8825;SDS011;4449;50.872;4.714;2023-05-15T10:57:04;61.30;;;27.15;;
8825;SDS011;4449;50.872;4.714;2023-05-15T10:59:33;46.17;;;26.92;;
8825;SDS011;4449;50.872;4.714;2023-05-15T11:02:20;37.10;;;24.87;;
8825;SDS011;4449;50.872;4.714;2023-05-15T11:04:52;52.97;;;28.92;;
8825;SDS011;4449;50.872;4.714;2023-05-15T11:07:21;34.97;;;24.90;;
8825;SDS011;4449;50.872;4.714;2023-05-15T11:09:50;41.88;;;25.98;;
8825;SDS011;4449;50.872;4.714;2023-05-15T11:12:18;33.35;;;22.98;;
8825;SDS011;4449;50.872;4.714;2023-05-15T11:17:33;37.60;;;27.00;;
8825;SDS011;4449;50.872;4.714;2023-05-15T11:20:01;146.32;;;41.67;;
8825;SDS011;4449;50.872;4.714;2023-05-15T11:22:30;51.10;;;29.00;;
8825;SDS011;4449;50.872;4.714;2023-05-15T11:25:00;46.45;;;28.55;;
8825;SDS011;4449;50.872;4.714;2023-05-15T11:27:29;43.38;;;29.23;;
8825;SDS011;4449;50.872;4.714;2023-05-15T11:30:10;44.65;;;29.52;;
8825;SDS011;4449;50.872;4.714;2023-05-15T11:32:43;50.08;;;30.90;;
8825;SDS011;4449;50.872;4.714;2023-05-15T11:35:12;53.00;;;30.95;;
8825;SDS011;4449;50.872;4.714;2023-05-15T11:37:41;127.95;;;41.53;;
8825;SDS011;4449;50.872;4.714;2023-05-15T11:40:11;67.82;;;35.03;;
8825;SDS011;4449;50.872;4.714;2023-05-15T11:42:40;56.13;;;34.00;;
8825;SDS011;4449;50.872;4.714;2023-05-15T11:45:08;62.80;;;35.20;;
8825;SDS011;4449;50.872;4.714;2023-05-15T11:47:36;61.28;;;34.55;;
8825;SDS011;4449;50.872;4.714;2023-05-15T11:50:06;58.70;;;34.30;;
8825;SDS011;4449;50.872;4.714;2023-05-15T11:52:34;68.30;;;36.17;;
8825;SDS011;4449;50.872;4.714;2023-05-15T11:55:01;69.93;;;39.40;;
8825;SDS011;4449;50.872;4.714;2023-05-15T11:57:30;77.70;;;38.10;;
8825;SDS011;4449;50.872;4.714;2023-05-15T11:59:57;73.97;;;38.22;;
8825;SDS011;4449;50.872;4.714;2023-05-15T12:02:26;68.28;;;37.28;;
8825;SDS011;4449;50.872;4.714;2023-05-15T12:04:54;53.03;;;33.03;;
8825;SDS011;4449;50.872;4.714;2023-05-15T12:07:23;58.50;;;34.47;;
8825;SDS011;4449;50.872;4.714;2023-05-15T12:09:51;57.92;;;34.78;;
8825;SDS011;4449;50.872;4.714;2023-05-15T12:12:19;56.30;;;34.37;;
8825;SDS011;4449;50.872;4.714;2023-05-15T12:14:51;57.30;;;32.75;;
8825;SDS011;4449;50.872;4.714;2023-05-15T12:17:24;58.10;;;32.65;;
8825;SDS011;4449;50.872;4.714;2023-05-15T12:19:52;60.83;;;35.03;;
8825;SDS011;4449;50.872;4.714;2023-05-15T12:22:23;64.53;;;33.65;;
8825;SDS011;4449;50.872;4.714;2023-05-15T12:24:51;63.63;;;34.88;;
8825;SDS011;4449;50.872;4.714;2023-05-15T12:27:19;70.15;;;37.25;;
8825;SDS011;4449;50.872;4.714;2023-05-15T12:29:47;76.83;;;39.27;;
8825;SDS011;4449;50.872;4.714;2023-05-15T12:32:15;348.92;;;73.13;;
8825;SDS011;4449;50.872;4.714;2023-05-15T12:34:42;85.07;;;40.42;;
8825;SDS011;4449;50.872;4.714;2023-05-15T12:37:11;82.90;;;40.63;;
8825;SDS011;4449;50.872;4.714;2023-05-15T12:39:49;94.55;;;43.15;;
8825;SDS011;4449;50.872;4.714;2023-05-15T12:42:17;111.05;;;47.13;;
8825;SDS011;4449;50.872;4.714;2023-05-15T12:44:48;92.43;;;43.75;;
8825;SDS011;4449;50.872;4.714;2023-05-15T12:47:20;95.07;;;45.63;;
8825;SDS011;4449;50.872;4.714;2023-05-15T12:49:49;86.75;;;44.63;;
8825;SDS011;4449;50.872;4.714;2023-05-15T12:52:17;92.68;;;43.40;;
8825;SDS011;4449;50.872;4.714;2023-05-15T12:54:44;90.93;;;43.40;;
8825;SDS011;4449;50.872;4.714;2023-05-15T12:57:16;88.38;;;42.22;;
8825;SDS011;4449;50.872;4.714;2023-05-15T12:59:43;93.40;;;41.10;;
8825;SDS011;4449;50.872;4.714;2023-05-15T13:02:11;85.88;;;42.00;;
8825;SDS011;4449;50.872;4.714;2023-05-15T13:04:39;76.70;;;38.75;;
8825;SDS011;4449;50.872;4.714;2023-05-15T13:07:07;62.67;;;33.50;;
8825;SDS011;4449;50.872;4.714;2023-05-15T13:09:34;64.60;;;33.25;;
8825;SDS011;4449;50.872;4.714;2023-05-15T13:12:02;67.28;;;33.65;;
8825;SDS011;4449;50.872;4.714;2023-05-15T13:14:34;64.72;;;33.45;;
8825;SDS011;4449;50.872;4.714;2023-05-15T13:17:02;65.18;;;33.35;;
8825;SDS011;4449;50.872;4.714;2023-05-15T13:19:30;66.30;;;34.58;;
8825;SDS011;4449;50.872;4.714;2023-05-15T13:21:58;64.28;;;31.38;;
8825;SDS011;4449;50.872;4.714;2023-05-15T13:24:26;55.38;;;31.30;;
8825;SDS011;4449;50.872;4.714;2023-05-15T13:26:54;52.95;;;28.27;;
8825;SDS011;4449;50.872;4.714;2023-05-15T13:29:22;50.97;;;27.02;;
8825;SDS011;4449;50.872;4.714;2023-05-15T13:31:51;35.73;;;20.03;;
8825;SDS011;4449;50.872;4.714;2023-05-15T13:34:18;32.88;;;17.80;;
8825;SDS011;4449;50.872;4.714;2023-05-15T13:36:46;72.82;;;19.88;;
8825;SDS011;4449;50.872;4.714;2023-05-15T13:39:14;26.13;;;14.60;;
8825;SDS011;4449;50.872;4.714;2023-05-15T13:41:42;19.67;;;13.20;;
8825;SDS011;4449;50.872;4.714;2023-05-15T13:44:10;23.25;;;13.70;;
8825;SDS011;4449;50.872;4.714;2023-05-15T13:46:39;17.40;;;10.80;;
8825;SDS011;4449;50.872;4.714;2023-05-15T13:49:09;16.70;;;10.15;;
8825;SDS011;4449;50.872;4.714;2023-05-15T13:51:36;10.02;;;7.28;;
8825;SDS011;4449;50.872;4.714;2023-05-15T13:54:04;9.15;;;6.32;;
8825;SDS011;4449;50.872;4.714;2023-05-15T13:56:32;7.63;;;5.70;;
8825;SDS011;4449;50.872;4.714;2023-05-15T13:59:00;9.98;;;5.40;;
8825;SDS011;4449;50.872;4.714;2023-05-15T14:01:28;5.85;;;4.35;;
8825;SDS011;4449;50.872;4.714;2023-05-15T14:03:56;4.47;;;4.05;;
8825;SDS011;4449;50.872;4.714;2023-05-15T14:06:25;4.50;;;3.80;;
8825;SDS011;4449;50.872;4.714;2023-05-15T14:08:53;5.97;;;4.30;;
8825;SDS011;4449;50.872;4.714;2023-05-15T14:11:20;5.40;;;4.87;;
8825;SDS011;4449;50.872;4.714;2023-05-15T14:13:48;6.00;;;5.38;;
8825;SDS011;4449;50.872;4.714;2023-05-15T14:16:16;6.15;;;5.53;;
8825;SDS011;4449;50.872;4.714;2023-05-15T14:18:44;6.72;;;6.10;;
8825;SDS011;4449;50.872;4.714;2023-05-15T14:21:11;6.20;;;5.60;;
8825;SDS011;4449;50.872;4.714;2023-05-15T14:23:40;5.80;;;5.30;;
8825;SDS011;4449;50.872;4.714;2023-05-15T14:26:08;6.65;;;6.05;;
8825;SDS011;4449;50.872;4.714;2023-05-15T14:28:45;6.40;;;5.47;;
8825;SDS011;4449;50.872;4.714;2023-05-15T14:31:13;7.18;;;6.13;;
8825;SDS011;4449;50.872;4.714;2023-05-15T14:33:41;7.70;;;5.63;;
8825;SDS011;4449;50.872;4.714;2023-05-15T14:36:08;6.50;;;5.87;;
8825;SDS011;4449;50.872;4.714;2023-05-15T14:38:36;6.25;;;5.65;;
8825;SDS011;4449;50.872;4.714;2023-05-15T14:41:05;6.43;;;5.85;;
8825;SDS011;4449;50.872;4.714;2023-05-15T14:43:33;6.45;;;5.80;;
8825;SDS011;4449;50.872;4.714;2023-05-15T14:46:01;6.75;;;5.90;;
8825;SDS011;4449;50.872;4.714;2023-05-15T14:48:29;8.95;;;6.78;;
8825;SDS011;4449;50.872;4.714;2023-05-15T14:50:58;8.60;;;7.40;;
8825;SDS011;4449;50.872;4.714;2023-05-15T14:53:26;8.55;;;7.75;;
8825;SDS011;4449;50.872;4.714;2023-05-15T14:55:54;10.73;;;8.07;;
8825;SDS011;4449;50.872;4.714;2023-05-15T14:58:24;10.00;;;7.93;;
8825;SDS011;4449;50.872;4.714;2023-05-15T15:00:52;9.70;;;7.72;;
8825;SDS011;4449;50.872;4.714;2023-05-15T15:03:20;10.20;;;7.00;;
8825;SDS011;4449;50.872;4.714;2023-05-15T15:05:48;7.77;;;6.97;;
8825;SDS011;4449;50.872;4.714;2023-05-15T15:08:16;9.37;;;6.40;;
8825;SDS011;4449;50.872;4.714;2023-05-15T15:10:44;9.80;;;6.90;;
8825;SDS011;4449;50.872;4.714;2023-05-15T15:13:12;7.67;;;6.87;;
8825;SDS011;4449;50.872;4.714;2023-05-15T15:15:42;8.97;;;6.60;;
8825;SDS011;4449;50.872;4.714;2023-05-15T15:18:10;8.63;;;6.40;;
8825;SDS011;4449;50.872;4.714;2023-05-15T15:20:37;7.43;;;6.57;;
8825;SDS011;4449;50.872;4.714;2023-05-15T15:23:05;8.83;;;6.57;;
8825;SDS011;4449;50.872;4.714;2023-05-15T15:25:33;12.07;;;6.43;;
8825;SDS011;4449;50.872;4.714;2023-05-15T15:28:01;8.90;;;5.83;;
8825;SDS011;4449;50.872;4.714;2023-05-15T15:30:29;9.00;;;5.07;;
8825;SDS011;4449;50.872;4.714;2023-05-15T15:32:58;5.40;;;4.93;;
8825;SDS011;4449;50.872;4.714;2023-05-15T15:35:26;7.30;;;5.67;;
8825;SDS011;4449;50.872;4.714;2023-05-15T15:37:54;9.90;;;5.73;;
8825;SDS011;4449;50.872;4.714;2023-05-15T15:40:22;8.67;;;5.80;;
8825;SDS011;4449;50.872;4.714;2023-05-15T15:42:50;11.93;;;5.87;;
8825;SDS011;4449;50.872;4.714;2023-05-15T15:45:18;6.57;;;4.83;;
8825;SDS011;4449;50.872;4.714;2023-05-15T15:47:46;13.97;;;4.87;;
8825;SDS011;4449;50.872;4.714;2023-05-15T15:50:15;5.00;;;4.00;;
8825;SDS011;4449;50.872;4.714;2023-05-15T15:52:43;7.43;;;4.80;;
8825;SDS011;4449;50.872;4.714;2023-05-15T15:55:11;12.43;;;5.30;;
8825;SDS011;4449;50.872;4.714;2023-05-15T15:57:39;8.43;;;4.63;;
8825;SDS011;4449;50.872;4.714;2023-05-15T16:00:07;6.77;;;5.00;;
8825;SDS011;4449;50.872;4.714;2023-05-15T16:02:35;6.83;;;4.53;;
8825;SDS011;4449;50.872;4.714;2023-05-15T16:05:02;7.40;;;4.33;;
8825;SDS011;4449;50.872;4.714;2023-05-15T16:07:32;7.77;;;4.37;;
8825;SDS011;4449;50.872;4.714;2023-05-15T16:10:00;8.67;;;4.37;;
8825;SDS011;4449;50.872;4.714;2023-05-15T16:12:28;4.60;;;4.20;;
8825;SDS011;4449;50.872;4.714;2023-05-15T16:14:56;4.63;;;4.27;;
8825;SDS011;4449;50.872;4.714;2023-05-15T16:17:24;8.27;;;4.00;;